Time;durP1;ratioP1;P1;durP2;ratioP2;P2;SDS_P1;SDS_P2;PMS_P1;PMS_P2;Temp;Humidity;BMP_temperature;BMP_pressure;BME280_temperature;BME280_humidity;BME280_pressure;Samples;Min_cycle;Max_cycle;Signal;HPM_P1;HPM_P2
2023/08/22 05:37:55;;;;;;;1.85;0.50;;;18.30;84.40;;;;;;1132732;23;21131;-81
2023/08/22 05:40:38;;;;;;;1.42;0.82;;;18.50;84.30;;;;;;4902939;29;20048;-89
2023/08/22 05:43:23;;;;;;;1.70;0.70;;;18.60;84.20;;;;;;4897067;29;20044;-89
2023/08/22 05:46:10;;;;;;;1.85;0.60;;;18.70;84.10;;;;;;4892199;29;20049;-89
2023/08/22 05:49:02;;;;;;;2.80;1.02;;;18.80;84.00;;;;;;4906555;29;20051;-84
2023/08/22 05:51:39;;;;;;;3.20;1.73;;;18.90;83.80;;;;;;4897838;29;20048;-93
2023/08/22 05:54:43;;;;;;;;;;;;;;;;;;;;;
2023/08/22 05:57:53;;;;;;;5.65;2.20;;;19.30;83.50;;;;;;4912747;29;20059;-87
2023/08/22 06:00:34;;;;;;;3.50;2.25;;;19.50;83.30;;;;;;4896657;29;20056;-86
2023/08/22 06:03:04;;;;;;;4.30;2.38;;;19.70;83.00;;;;;;4888006;29;20497;-84
2023/08/22 06:09:30;;;;;;;4.43;2.10;;;20.10;82.20;;;;;;4816550;29;20060;-86
2023/08/22 06:11:59;;;;;;;6.25;2.45;;;20.30;81.90;;;;;;4826792;29;20050;-82
2023/08/22 06:14:28;;;;;;;4.75;2.65;;;20.50;81.70;;;;;;4846979;29;20136;-83
2023/08/22 06:16:56;;;;;;;4.25;2.47;;;20.50;81.60;;;;;;4834357;29;20139;-83
2023/08/22 06:19:25;;;;;;;6.00;2.45;;;20.60;81.60;;;;;;4842078;29;20087;-84
2023/08/22 06:21:54;;;;;;;4.38;2.10;;;20.60;81.60;;;;;;4852985;29;20491;-83
2023/08/22 06:24:21;;;;;;;7.50;3.13;;;20.60;81.60;;;;;;4836104;29;20049;-83
2023/08/22 06:26:48;;;;;;;5.00;3.00;;;20.70;81.70;;;;;;4858698;29;20457;-83
2023/08/22 06:29:18;;;;;;;6.65;3.25;;;20.80;81.70;;;;;;4809796;29;20049;-84
2023/08/22 06:31:45;;;;;;;7.13;3.35;;;20.90;81.50;;;;;;4835283;29;20451;-82
2023/08/22 06:34:13;;;;;;;3.97;2.33;;;21.00;81.30;;;;;;4863138;29;20041;-86
2023/08/22 06:36:43;;;;;;;5.15;2.75;;;21.20;81.00;;;;;;4877491;29;20058;-85
2023/08/22 06:39:11;;;;;;;6.25;3.25;;;21.30;80.70;;;;;;4856162;29;20056;-85
2023/08/22 06:41:38;;;;;;;6.05;2.80;;;21.40;80.30;;;;;;4919431;29;20128;-85
2023/08/22 06:44:10;;;;;;;4.57;2.53;;;21.50;80.00;;;;;;4914481;29;20048;-86
2023/08/22 06:46:38;;;;;;;4.95;2.70;;;21.60;79.80;;;;;;4901238;29;20107;-85
2023/08/22 06:49:08;;;;;;;5.05;2.78;;;21.70;79.60;;;;;;4930430;29;20044;-84
2023/08/22 06:51:38;;;;;;;4.53;2.25;;;21.60;79.40;;;;;;4923321;29;20044;-85
2023/08/22 06:54:06;;;;;;;4.00;2.03;;;21.60;79.50;;;;;;4904741;29;20091;-85
2023/08/22 06:56:33;;;;;;;4.68;2.95;;;21.60;79.40;;;;;;4906830;29;20050;-85
2023/08/22 06:59:01;;;;;;;5.25;2.13;;;21.70;79.20;;;;;;4909319;29;20426;-85
2023/08/22 07:01:28;;;;;;;3.22;2.25;;;21.70;78.80;;;;;;4920611;29;20040;-82
2023/08/22 07:03:58;;;;;;;5.97;2.88;;;21.70;78.80;;;;;;4901259;29;20048;-83
2023/08/22 07:06:42;;;;;;;6.25;2.72;;;21.70;78.80;;;;;;4900996;29;20096;-84
2023/08/22 07:09:09;;;;;;;4.20;2.33;;;21.60;79.10;;;;;;4912449;29;20044;-85
2023/08/22 07:11:36;;;;;;;4.38;1.92;;;21.50;79.20;;;;;;4901376;29;20072;-85
2023/08/22 07:14:03;;;;;;;5.45;2.35;;;21.50;79.20;;;;;;4898109;29;20095;-84
2023/08/22 07:16:31;;;;;;;3.65;1.60;;;21.50;79.10;;;;;;4902088;29;20044;-86
2023/08/22 07:18:59;;;;;;;4.35;2.50;;;21.50;78.90;;;;;;4911449;29;20076;-87
2023/08/22 07:21:26;;;;;;;3.20;1.77;;;21.60;78.50;;;;;;4905249;29;20052;-82
2023/08/22 07:23:56;;;;;;;3.33;1.75;;;21.70;78.10;;;;;;4906869;29;20044;-86
2023/08/22 07:26:23;;;;;;;3.83;1.63;;;21.80;77.70;;;;;;4904552;29;20044;-84
2023/08/22 07:28:51;;;;;;;3.10;1.27;;;22.00;77.40;;;;;;4891943;29;20052;-85
2023/08/22 07:31:18;;;;;;;4.38;1.77;;;22.10;76.90;;;;;;4900548;29;20155;-83
2023/08/22 07:33:45;;;;;;;2.55;1.23;;;22.30;76.60;;;;;;4901060;29;20099;-82
2023/08/22 07:36:20;;;;;;;3.47;1.33;;;22.40;76.20;;;;;;4895558;29;20067;-85
2023/08/22 07:38:49;;;;;;;2.75;1.00;;;22.50;75.80;;;;;;4916565;29;20060;-85
2023/08/22 07:41:16;;;;;;;2.35;1.23;;;22.50;75.80;;;;;;4935032;29;20202;-84
2023/08/22 07:43:44;;;;;;;5.68;1.63;;;22.60;75.70;;;;;;4908511;29;20052;-84
2023/08/22 07:46:11;;;;;;;3.20;1.05;;;22.60;75.50;;;;;;4918220;29;20044;-84
2023/08/22 07:48:40;;;;;;;3.13;1.27;;;22.70;75.10;;;;;;4900615;29;20474;-87
2023/08/22 07:51:07;;;;;;;2.78;1.30;;;22.80;74.50;;;;;;4902306;29;20040;-86
2023/08/22 07:53:35;;;;;;;2.33;0.90;;;22.80;73.70;;;;;;4900502;29;20044;-84
2023/08/22 07:56:13;;;;;;;2.42;0.70;;;22.80;73.50;;;;;;4918611;29;20055;-90
2023/08/22 07:58:57;;;;;;;2.97;0.60;;;22.80;73.50;;;;;;4921874;29;20058;-83
2023/08/22 08:01:24;;;;;;;2.35;0.68;;;22.90;73.10;;;;;;4915793;29;20072;-82
2023/08/22 08:03:51;;;;;;;1.73;0.68;;;22.90;72.30;;;;;;4909748;29;20078;-82
2023/08/22 08:06:19;;;;;;;2.00;0.80;;;23.00;72.10;;;;;;4905902;29;20111;-83
2023/08/22 08:08:46;;;;;;;1.23;0.60;;;23.00;71.30;;;;;;4918793;29;20039;-83
2023/08/22 08:11:13;;;;;;;0.80;0.43;;;23.10;71.50;;;;;;4905171;29;20045;-82
2023/08/22 08:13:40;;;;;;;1.27;0.50;;;23.20;71.40;;;;;;4896004;29;20052;-81
2023/08/22 08:16:07;;;;;;;1.77;0.50;;;23.30;71.30;;;;;;4890941;29;20066;-83
2023/08/22 08:18:35;;;;;;;2.55;0.40;;;23.40;70.90;;;;;;4918096;29;20047;-87
2023/08/22 08:21:02;;;;;;;2.03;0.45;;;23.40;70.60;;;;;;4918474;29;20047;-85
2023/08/22 08:23:30;;;;;;;1.65;0.40;;;23.40;70.40;;;;;;4919487;29;20138;-88
2023/08/22 08:26:44;;;;;;;1.00;0.40;;;23.50;70.50;;;;;;4900729;29;20100;-89
2023/08/22 08:29:17;;;;;;;2.42;0.70;;;23.60;70.10;;;;;;4901341;29;20457;-89
2023/08/22 08:31:49;;;;;;;1.90;0.57;;;23.60;69.80;;;;;;4922668;29;20568;-89
2023/08/22 08:34:19;;;;;;;0.95;0.35;;;23.60;69.60;;;;;;4911220;29;20060;-86
2023/08/22 08:36:47;;;;;;;0.90;0.30;;;23.70;69.70;;;;;;4899687;29;20059;-87
2023/08/22 08:39:14;;;;;;;1.52;0.43;;;23.70;69.30;;;;;;4904794;29;20060;-88
2023/08/22 08:41:56;;;;;;;1.27;0.40;;;23.80;68.80;;;;;;4934915;29;20051;-89
2023/08/22 08:44:26;;;;;;;1.63;0.47;;;23.80;68.30;;;;;;4905249;29;20138;-82
2023/08/22 08:46:55;;;;;;;1.58;0.50;;;23.80;68.30;;;;;;4917093;29;20052;-86
2023/08/22 08:49:23;;;;;;;1.55;0.80;;;23.80;68.10;;;;;;4931565;29;20058;-88
2023/08/22 08:51:54;;;;;;;2.58;0.60;;;23.70;68.10;;;;;;4910725;29;20072;-89
2023/08/22 08:54:22;;;;;;;1.98;0.70;;;23.70;67.90;;;;;;4912538;29;20048;-84
2023/08/22 08:56:51;;;;;;;0.90;0.40;;;23.60;68.00;;;;;;4899996;29;20076;-87
2023/08/22 08:59:30;;;;;;;1.90;0.30;;;23.60;68.20;;;;;;4913657;29;20487;-92
2023/08/22 09:02:25;;;;;;;0.95;0.38;;;23.60;68.30;;;;;;4920220;29;20052;-89
2023/08/22 09:05:30;;;;;;;0.28;0.20;;;23.80;68.20;;;;;;4910897;29;20107;-92
2023/08/22 09:08:34;;;;;;;1.63;0.30;;;23.90;68.20;;;;;;4908530;29;20047;-90
2023/08/22 09:11:08;;;;;;;3.15;0.43;;;24.10;67.80;;;;;;4915024;29;20063;-88
2023/08/22 09:13:38;;;;;;;3.50;0.70;;;24.10;67.10;;;;;;4913913;29;20048;-89
2023/08/22 09:16:28;;;;;;;2.90;0.50;;;24.10;66.30;;;;;;4909506;29;20452;-89
2023/08/22 09:19:02;;;;;;;1.63;0.65;;;24.10;66.20;;;;;;4921821;29;20048;-88
2023/08/22 09:21:31;;;;;;;3.78;0.70;;;24.00;65.80;;;;;;4904163;29;20153;-87
2023/08/22 09:24:08;;;;;;;2.28;0.57;;;23.90;66.10;;;;;;4922583;29;20154;-90
2023/08/22 09:26:45;;;;;;;3.00;0.57;;;24.00;65.90;;;;;;4918639;29;20052;-90
2023/08/22 09:29:14;;;;;;;1.20;0.60;;;24.00;65.90;;;;;;4899316;29;20099;-89
2023/08/22 09:31:42;;;;;;;2.83;0.55;;;24.10;65.90;;;;;;4911533;29;20048;-92
2023/08/22 09:34:12;;;;;;;2.55;0.57;;;24.10;65.80;;;;;;4921544;29;20075;-90
2023/08/22 09:36:45;;;;;;;1.63;0.50;;;24.20;65.90;;;;;;4907702;29;20335;-90
2023/08/22 09:39:19;;;;;;;3.40;0.68;;;24.40;65.60;;;;;;4895269;29;20647;-91
2023/08/22 09:42:01;;;;;;;1.15;0.63;;;24.50;65.50;;;;;;4899737;29;20087;-88
2023/08/22 09:44:29;;;;;;;2.03;0.55;;;24.60;65.30;;;;;;4908874;29;20048;-88
2023/08/22 09:46:57;;;;;;;2.42;0.60;;;24.60;65.20;;;;;;4910068;29;20456;-91
2023/08/22 09:50:02;;;;;;;2.85;0.73;;;24.70;64.70;;;;;;4941013;29;20094;-89
2023/08/22 09:52:37;;;;;;;2.22;0.60;;;24.90;64.20;;;;;;4920257;29;20212;-83
2023/08/22 09:55:06;;;;;;;2.07;0.60;;;24.90;63.30;;;;;;4912569;29;20548;-83
2023/08/22 09:57:35;;;;;;;2.47;0.70;;;24.90;63.10;;;;;;4924398;29;20118;-84
2023/08/22 10:00:04;;;;;;;2.67;0.50;;;24.90;62.50;;;;;;4874222;29;20051;-84
2023/08/22 10:02:43;;;;;;;1.45;0.40;;;24.90;62.80;;;;;;4906046;29;20412;-94
2023/08/22 10:05:34;;;;;;;2.75;0.70;;;24.90;63.90;;;;;;4889755;29;20044;-89
2023/08/22 10:08:10;;;;;;;1.58;0.60;;;24.90;63.10;;;;;;4882994;29;20055;-88
2023/08/22 10:11:17;;;;;;;;;;;;;;;;;;;;;
2023/08/22 10:14:26;;;;;;;2.88;1.10;;;24.60;63.80;;;;;;4932827;29;20035;-93
2023/08/22 10:17:27;;;;;;;3.50;0.68;;;24.70;63.70;;;;;;4910208;29;20130;-85
2023/08/22 10:20:04;;;;;;;5.55;1.00;;;25.00;63.10;;;;;;4915484;29;20052;-84
2023/08/22 10:22:35;;;;;;;2.15;0.73;;;25.00;62.50;;;;;;4927004;29;20531;-88
2023/08/22 10:25:04;;;;;;;2.35;0.65;;;25.00;62.10;;;;;;4903980;29;20142;-84
2023/08/22 10:27:33;;;;;;;1.40;0.40;;;25.00;62.30;;;;;;4924144;29;20055;-82
2023/08/22 10:30:15;;;;;;;1.45;0.38;;;25.30;62.20;;;;;;4920194;29;20138;-87
2023/08/22 10:33:28;;;;;;;1.55;0.22;;;25.70;61.70;;;;;;4913816;29;20048;-89
2023/08/22 10:36:22;;;;;;;2.72;0.43;;;25.80;61.40;;;;;;4872589;29;20093;-88
2023/08/22 10:39:49;;;;;;;1.13;0.40;;;26.00;60.60;;;;;;4840730;29;20517;-90
2023/08/22 10:42:28;;;;;;;1.88;0.55;;;26.20;60.60;;;;;;4884967;29;20077;-92
2023/08/22 10:45:51;;;;;;;2.90;0.30;;;26.30;59.70;;;;;;4899443;29;20139;-89
2023/08/22 10:48:44;;;;;;;1.13;0.40;;;26.30;59.90;;;;;;4868559;29;20051;-90
2023/08/22 10:52:04;;;;;;;0.50;0.25;;;26.10;59.60;;;;;;4873011;29;20139;-90
2023/08/22 10:55:03;;;;;;;0.77;0.30;;;26.10;60.00;;;;;;4895231;29;20086;-90
2023/08/22 10:57:32;;;;;;;0.85;0.30;;;26.30;59.70;;;;;;4887271;29;20044;-90
2023/08/22 11:03:16;;;;;;;0.82;0.30;;;26.70;57.90;;;;;;4891414;29;20422;-89
2023/08/22 11:06:59;;;;;;;3.95;0.68;;;26.50;58.30;;;;;;4902399;29;20071;-91
2023/08/22 11:09:48;;;;;;;0.77;0.40;;;26.50;58.20;;;;;;4906378;29;20108;-86
2023/08/22 11:12:24;;;;;;;0.98;0.25;;;26.30;57.90;;;;;;4900395;29;20468;-88
2023/08/22 11:14:57;;;;;;;2.50;0.40;;;26.20;58.10;;;;;;4899874;29;20052;-90
2023/08/22 11:17:50;;;;;;;1.83;0.40;;;26.10;57.90;;;;;;4898740;29;20218;-91
2023/08/22 11:20:25;;;;;;;1.10;0.40;;;26.00;58.00;;;;;;4880563;29;20528;-84
2023/08/22 11:23:30;;;;;;;0.95;0.32;;;26.00;57.30;;;;;;4861478;29;20120;-91
2023/08/22 11:26:12;;;;;;;1.45;0.20;;;26.00;57.00;;;;;;4893411;29;20056;-92
2023/08/22 11:28:47;;;;;;;0.63;0.10;;;26.00;57.00;;;;;;4890273;29;20075;-93
2023/08/22 11:31:52;;;;;;;0.98;0.20;;;26.20;56.80;;;;;;4891355;29;20495;-83
2023/08/22 11:34:21;;;;;;;0.95;0.22;;;26.40;56.50;;;;;;4886725;29;20045;-90
2023/08/22 11:36:57;;;;;;;1.30;0.17;;;26.50;56.10;;;;;;4885253;29;20148;-83
2023/08/22 11:39:24;;;;;;;1.13;0.40;;;26.40;55.30;;;;;;4891279;29;20068;-93
2023/08/22 11:41:51;;;;;;;0.90;0.25;;;26.40;55.10;;;;;;4895283;29;20052;-88
2023/08/22 11:44:20;;;;;;;0.68;0.13;;;26.40;54.60;;;;;;4918901;29;20062;-84
2023/08/22 11:46:51;;;;;;;2.33;0.30;;;26.30;55.00;;;;;;4919517;29;20052;-85
2023/08/22 11:49:56;;;;;;;0.80;0.15;;;26.40;54.80;;;;;;4899709;29;20055;-86
2023/08/22 11:52:30;;;;;;;0.20;0.10;;;26.60;54.60;;;;;;4912798;29;20055;-85
2023/08/22 11:55:22;;;;;;;1.30;0.15;;;26.90;54.50;;;;;;4907320;29;20422;-86
2023/08/22 11:58:08;;;;;;;2.83;0.10;;;27.10;54.20;;;;;;4899004;29;20048;-85
2023/08/22 12:00:35;;;;;;;0.63;0.10;;;27.10;54.40;;;;;;4932659;29;20053;-85
2023/08/22 12:03:05;;;;;;;0.35;0.10;;;27.30;54.10;;;;;;4905398;29;20139;-87
2023/08/22 12:05:53;;;;;;;1.98;0.30;;;27.30;53.90;;;;;;4901661;29;20044;-86
2023/08/22 12:08:20;;;;;;;0.93;0.20;;;27.10;53.10;;;;;;4899600;29;20067;-85
2023/08/22 12:11:01;;;;;;;0.70;0.13;;;26.90;53.30;;;;;;4902233;29;20071;-96
2023/08/22 12:13:29;;;;;;;0.93;0.13;;;26.90;53.30;;;;;;4902207;29;20044;-81
2023/08/22 12:16:04;;;;;;;1.75;0.40;;;26.80;53.50;;;;;;4899963;29;20069;-85
2023/08/22 12:18:34;;;;;;;2.70;0.30;;;26.90;52.70;;;;;;4917477;29;20082;-85
2023/08/22 12:21:08;;;;;;;1.95;0.50;;;26.70;53.00;;;;;;4911376;29;20060;-82
2023/08/22 12:23:37;;;;;;;1.27;0.40;;;26.60;53.30;;;;;;4929747;29;20056;-82
2023/08/22 12:26:06;;;;;;;0.82;0.30;;;26.60;53.60;;;;;;4869680;29;20059;-83
2023/08/22 12:28:40;;;;;;;1.52;0.28;;;26.70;53.80;;;;;;4931343;29;20130;-82
2023/08/22 12:31:07;;;;;;;1.02;0.38;;;26.80;53.70;;;;;;4900631;29;20056;-84
2023/08/22 12:33:37;;;;;;;2.03;0.50;;;26.70;54.00;;;;;;4887253;29;20075;-84
2023/08/22 12:36:06;;;;;;;0.82;0.30;;;26.60;54.30;;;;;;4910380;29;20396;-84
2023/08/22 12:38:33;;;;;;;1.70;0.40;;;26.30;54.70;;;;;;4914315;29;20130;-84
2023/08/22 12:41:07;;;;;;;1.83;0.50;;;26.20;55.30;;;;;;4918168;29;20159;-82
2023/08/22 12:43:36;;;;;;;1.73;0.70;;;26.00;55.50;;;;;;4892450;29;20052;-83
2023/08/22 12:46:39;;;;;;;1.20;0.50;;;25.80;55.80;;;;;;4908106;29;20051;-85
2023/08/22 12:49:13;;;;;;;1.25;0.50;;;25.70;56.20;;;;;;4925618;29;20079;-84
2023/08/22 12:51:40;;;;;;;1.90;0.47;;;25.50;56.60;;;;;;4908809;29;20052;-82
2023/08/22 12:54:07;;;;;;;0.93;0.40;;;25.40;56.80;;;;;;4905108;29;20047;-83
2023/08/22 12:56:40;;;;;;;1.88;0.50;;;25.40;57.00;;;;;;4905262;29;20139;-83
2023/08/22 12:59:07;;;;;;;1.17;0.47;;;25.50;57.10;;;;;;4921977;29;20048;-82
2023/08/22 13:01:34;;;;;;;1.10;0.32;;;25.50;57.30;;;;;;4917181;29;20056;-83
2023/08/22 13:04:14;;;;;;;0.77;0.30;;;25.50;57.30;;;;;;4906207;29;20067;-81
2023/08/22 13:06:41;;;;;;;1.63;0.40;;;25.40;57.40;;;;;;4905220;29;20068;-83
2023/08/22 13:09:16;;;;;;;2.20;0.38;;;25.30;57.30;;;;;;4907353;29;20052;-82
2023/08/22 13:11:43;;;;;;;1.15;0.38;;;25.40;57.40;;;;;;4912378;29;20056;-84
2023/08/22 13:14:10;;;;;;;2.70;0.50;;;25.40;57.20;;;;;;4884728;29;20052;-87
2023/08/22 13:16:38;;;;;;;1.75;0.50;;;25.40;57.00;;;;;;4902286;29;20044;-81
2023/08/22 13:19:11;;;;;;;1.63;0.50;;;25.30;57.10;;;;;;4914714;29;20131;-83
2023/08/22 13:21:38;;;;;;;1.67;0.40;;;25.30;57.30;;;;;;4901305;29;20058;-85
2023/08/22 13:24:05;;;;;;;1.75;0.40;;;25.20;57.50;;;;;;4915621;29;20046;-86
2023/08/22 13:26:42;;;;;;;1.13;0.40;;;25.10;57.80;;;;;;4911415;29;20044;-86
2023/08/22 13:29:12;;;;;;;2.58;0.40;;;25.00;58.00;;;;;;4883960;29;20493;-87
2023/08/22 13:31:40;;;;;;;1.30;0.50;;;25.00;58.20;;;;;;4910790;29;20055;-86
2023/08/22 13:34:17;;;;;;;2.40;0.55;;;25.00;58.40;;;;;;4899566;29;20104;-88
2023/08/22 13:36:53;;;;;;;2.00;0.40;;;24.90;58.50;;;;;;4900686;29;20257;-87
2023/08/22 13:39:26;;;;;;;2.03;0.40;;;24.90;58.30;;;;;;4899165;29;20171;-88
2023/08/22 13:42:04;;;;;;;0.75;0.20;;;24.90;58.40;;;;;;4916866;29;20588;-87
2023/08/22 13:44:37;;;;;;;2.58;0.30;;;25.00;58.20;;;;;;4904201;29;20048;-88
2023/08/22 13:47:07;;;;;;;1.70;0.30;;;25.00;58.00;;;;;;4922949;29;20056;-86
2023/08/22 13:49:36;;;;;;;;;;;25.20;57.90;;;;;;4917400;29;20040;-89
2023/08/22 13:52:13;;;;;;;1.27;0.50;;;25.20;57.80;;;;;;4899535;29;19962;-88
2023/08/22 13:54:40;;;;;;;0.95;0.20;;;25.20;57.70;;;;;;4892512;29;20044;-86
2023/08/22 13:57:08;;;;;;;0.75;0.22;;;25.20;57.80;;;;;;4922110;29;20055;-85
2023/08/22 13:59:38;;;;;;;1.80;0.38;;;25.30;57.80;;;;;;4918643;29;20095;-88
2023/08/22 14:02:10;;;;;;;1.73;0.50;;;25.30;57.60;;;;;;4907678;29;20458;-89
2023/08/22 14:04:42;;;;;;;1.02;0.30;;;25.40;57.50;;;;;;4906549;29;20067;-89
2023/08/22 14:07:10;;;;;;;1.55;0.20;;;25.40;57.60;;;;;;4922208;29;20106;-88
2023/08/22 14:09:43;;;;;;;0.52;0.20;;;25.50;57.60;;;;;;4918087;29;20048;-87
2023/08/22 14:12:11;;;;;;;0.88;0.20;;;25.50;57.70;;;;;;4908368;29;20135;-89
2023/08/22 14:14:43;;;;;;;0.95;0.20;;;25.60;57.70;;;;;;4887712;29;20104;-87
2023/08/22 14:17:16;;;;;;;1.27;0.38;;;25.70;57.80;;;;;;4895643;29;20054;-88
2023/08/22 14:19:46;;;;;;;1.08;0.32;;;25.70;57.80;;;;;;4905691;29;20190;-87
2023/08/22 14:22:13;;;;;;;2.22;0.43;;;25.60;58.10;;;;;;4908819;29;20135;-87
2023/08/22 14:24:43;;;;;;;3.15;0.95;;;25.60;58.30;;;;;;4921289;29;20055;-86
2023/08/22 14:27:10;;;;;;;2.03;0.40;;;25.50;58.40;;;;;;4905250;29;20150;-87
2023/08/22 14:29:40;;;;;;;1.58;0.43;;;25.40;58.60;;;;;;4921829;29;20104;-88
2023/08/22 14:32:07;;;;;;;1.73;0.57;;;25.30;58.70;;;;;;4916869;29;20047;-88
2023/08/22 14:34:34;;;;;;;1.50;0.60;;;25.30;58.80;;;;;;4911857;29;20048;-87
2023/08/22 14:37:02;;;;;;;1.50;0.30;;;26.00;58.10;;;;;;4914346;29;20059;-87
2023/08/22 14:39:47;;;;;;;1.98;0.55;;;27.70;55.80;;;;;;4904840;29;20496;-88
2023/08/22 14:42:14;;;;;;;3.20;0.50;;;29.40;53.20;;;;;;4899291;29;20052;-87
2023/08/22 14:44:42;;;;;;;1.70;0.40;;;30.40;51.20;;;;;;4928122;29;20048;-85
2023/08/22 14:47:09;;;;;;;2.10;0.35;;;31.30;49.80;;;;;;4886465;29;20052;-87
2023/08/22 14:49:36;;;;;;;2.53;0.30;;;32.00;49.30;;;;;;4905981;29;20514;-87
2023/08/22 14:52:04;;;;;;;2.28;0.20;;;32.70;48.40;;;;;;4894677;29;20060;-87
2023/08/22 14:54:33;;;;;;;2.35;0.35;;;33.30;48.10;;;;;;4917886;29;20047;-87
2023/08/22 14:57:02;;;;;;;1.88;0.82;;;33.70;47.70;;;;;;4912564;29;20040;-87
2023/08/22 14:59:29;;;;;;;2.40;0.32;;;34.00;46.60;;;;;;4903562;29;20059;-88
2023/08/22 15:01:58;;;;;;;0.38;0.10;;;34.00;45.80;;;;;;4920494;29;20067;-86
2023/08/22 15:04:27;;;;;;;1.27;0.30;;;34.20;45.40;;;;;;4906635;29;20079;-87
2023/08/22 15:06:54;;;;;;;1.10;0.15;;;33.90;44.60;;;;;;4907699;29;20059;-86
2023/08/22 15:09:21;;;;;;;0.75;0.20;;;33.60;44.90;;;;;;4914917;29;20048;-87
2023/08/22 15:11:48;;;;;;;1.00;0.20;;;33.40;45.00;;;;;;4919935;29;20103;-86
2023/08/22 15:14:15;;;;;;;1.45;0.10;;;33.80;44.80;;;;;;4924791;29;20084;-87
2023/08/22 15:16:43;;;;;;;2.58;0.40;;;34.10;44.40;;;;;;4917636;29;20070;-86
2023/08/22 15:19:12;;;;;;;1.65;0.30;;;33.80;43.70;;;;;;4901460;29;20138;-84
2023/08/22 15:21:39;;;;;;;1.33;0.30;;;33.60;43.90;;;;;;4886840;29;20058;-82
2023/08/22 15:24:06;;;;;;;0.80;0.30;;;33.70;43.90;;;;;;4916387;29;20055;-82
2023/08/22 15:26:33;;;;;;;0.80;0.20;;;33.90;43.80;;;;;;4911707;29;20056;-82
2023/08/22 15:29:00;;;;;;;1.05;0.20;;;34.20;43.40;;;;;;4903826;29;20043;-86
2023/08/22 15:31:27;;;;;;;1.02;0.20;;;34.40;43.20;;;;;;4914148;29;20506;-89
2023/08/22 15:33:59;;;;;;;1.60;0.60;;;34.60;43.00;;;;;;4909862;29;20060;-92
2023/08/22 15:36:26;;;;;;;0.57;0.20;;;34.80;42.60;;;;;;4915465;29;20048;-85
2023/08/22 15:38:53;;;;;;;0.70;0.22;;;34.70;42.20;;;;;;4898054;29;20046;-85
2023/08/22 15:41:22;;;;;;;1.02;0.30;;;34.70;42.50;;;;;;4912899;29;20078;-82
2023/08/22 15:43:49;;;;;;;1.33;0.35;;;35.00;42.20;;;;;;4901132;29;20036;-84
2023/08/22 15:46:16;;;;;;;1.33;0.40;;;34.90;41.70;;;;;;4905963;29;20134;-84
2023/08/22 15:48:43;;;;;;;1.13;0.30;;;34.90;41.60;;;;;;4909077;29;20048;-85
2023/08/22 15:51:10;;;;;;;1.05;0.40;;;34.80;41.50;;;;;;4901404;29;20119;-84
2023/08/22 15:53:39;;;;;;;1.10;0.30;;;34.80;41.30;;;;;;4888200;29;20083;-83
2023/08/22 15:56:06;;;;;;;0.82;0.20;;;34.80;41.20;;;;;;4891105;29;20068;-84
2023/08/22 15:58:33;;;;;;;3.15;0.30;;;34.80;41.30;;;;;;4918154;29;20055;-84
2023/08/22 16:01:00;;;;;;;0.43;0.20;;;35.00;41.20;;;;;;4916578;29;20052;-84
2023/08/22 16:03:27;;;;;;;1.58;0.20;;;35.00;41.10;;;;;;4888135;29;20052;-82
2023/08/22 16:05:57;;;;;;;2.22;0.20;;;35.20;41.30;;;;;;4872313;29;20493;-86
2023/08/22 16:08:25;;;;;;;1.00;0.20;;;35.50;40.60;;;;;;4884704;29;20520;-85
2023/08/22 16:10:54;;;;;;;1.33;0.10;;;35.30;40.60;;;;;;4928167;29;20050;-88
2023/08/22 16:13:21;;;;;;;2.20;0.30;;;35.40;41.40;;;;;;4905549;29;20056;-86
2023/08/22 16:15:51;;;;;;;0.98;0.20;;;35.20;40.50;;;;;;4925359;29;20449;-89
2023/08/22 16:18:19;;;;;;;1.15;0.30;;;35.00;40.90;;;;;;4915262;29;20059;-86
2023/08/22 16:20:46;;;;;;;1.60;0.32;;;34.80;41.00;;;;;;4908548;29;20056;-82
2023/08/22 16:23:16;;;;;;;1.05;0.25;;;34.80;41.10;;;;;;4922023;29;20044;-82
2023/08/22 16:25:43;;;;;;;1.00;0.20;;;35.00;41.10;;;;;;4910929;29;20047;-86
2023/08/22 16:28:14;;;;;;;0.75;0.22;;;35.10;41.20;;;;;;4899418;29;20051;-87
2023/08/22 16:30:41;;;;;;;1.33;0.20;;;35.20;41.10;;;;;;4915362;29;20100;-85
2023/08/22 16:33:09;;;;;;;1.30;0.20;;;35.10;41.10;;;;;;4899673;29;20048;-81
2023/08/22 16:35:36;;;;;;;0.70;0.17;;;34.90;41.30;;;;;;4899584;29;20067;-84
2023/08/22 16:38:03;;;;;;;0.80;0.28;;;34.60;41.50;;;;;;4909454;29;20047;-81
2023/08/22 16:40:33;;;;;;;2.73;0.20;;;34.40;41.80;;;;;;4902680;29;20055;-83
2023/08/22 16:43:03;;;;;;;1.25;0.40;;;34.10;41.90;;;;;;4918092;29;20050;-83
2023/08/22 16:45:30;;;;;;;2.25;0.40;;;34.00;42.40;;;;;;4915056;29;20437;-86
2023/08/22 16:48:01;;;;;;;2.13;0.30;;;33.80;42.50;;;;;;4930848;29;20150;-85
2023/08/22 16:50:28;;;;;;;1.70;0.30;;;33.30;43.00;;;;;;4918113;29;20497;-85
2023/08/22 16:52:56;;;;;;;1.67;0.55;;;32.80;43.80;;;;;;4902272;29;20051;-84
2023/08/22 16:55:23;;;;;;;1.40;0.45;;;31.80;45.10;;;;;;4899768;29;20048;-81
2023/08/22 16:57:52;;;;;;;2.00;0.60;;;30.60;46.50;;;;;;4916386;29;20044;-94
2023/08/22 17:00:23;;;;;;;2.67;0.40;;;29.50;47.80;;;;;;4906878;29;20160;-94
2023/08/22 17:02:50;;;;;;;2.38;0.40;;;28.80;49.10;;;;;;4902990;29;20075;-92
2023/08/22 17:05:20;;;;;;;1.85;0.40;;;28.90;48.90;;;;;;4922144;29;20051;-93
2023/08/22 17:07:57;;;;;;;3.20;0.70;;;29.60;48.00;;;;;;4908770;29;20052;-86
2023/08/22 17:10:32;;;;;;;2.30;0.73;;;30.20;47.00;;;;;;4906226;29;20065;-86
2023/08/22 17:13:01;;;;;;;2.60;0.50;;;30.70;46.60;;;;;;4904727;29;20083;-82
2023/08/22 17:15:30;;;;;;;1.50;0.40;;;31.30;46.10;;;;;;4906567;29;20056;-83
2023/08/22 17:17:57;;;;;;;0.93;0.30;;;31.70;45.80;;;;;;4914644;29;20048;-82
2023/08/22 17:20:28;;;;;;;1.30;0.50;;;31.80;45.60;;;;;;4913354;29;20044;-83
2023/08/22 17:22:55;;;;;;;1.38;0.28;;;31.90;45.70;;;;;;4892386;29;20055;-81
2023/08/22 17:25:22;;;;;;;0.68;0.30;;;32.00;45.80;;;;;;4888115;29;20051;-85
2023/08/22 17:27:51;;;;;;;0.80;0.40;;;32.20;45.80;;;;;;4907529;29;20062;-84
2023/08/22 17:30:19;;;;;;;1.10;0.40;;;32.10;45.70;;;;;;4919344;29;20082;-84
2023/08/22 17:32:46;;;;;;;1.38;0.20;;;31.70;46.30;;;;;;4902052;29;20162;-84
2023/08/22 17:35:13;;;;;;;1.35;0.22;;;30.70;47.50;;;;;;4902040;29;20052;-83
2023/08/22 17:37:42;;;;;;;1.42;0.28;;;29.60;49.00;;;;;;4906050;29;20052;-86
2023/08/22 17:40:09;;;;;;;1.30;0.35;;;28.60;50.40;;;;;;4894008;29;20071;-81
2023/08/22 17:42:36;;;;;;;1.75;0.30;;;27.80;51.50;;;;;;4902244;29;20048;-82
2023/08/22 17:45:03;;;;;;;1.50;0.35;;;27.10;52.40;;;;;;4903007;29;20517;-84
2023/08/22 17:47:32;;;;;;;1.48;0.30;;;26.70;53.20;;;;;;4892208;29;20480;-83
2023/08/22 17:49:59;;;;;;;0.73;0.40;;;26.30;53.70;;;;;;4921877;29;20042;-82
2023/08/22 17:52:28;;;;;;;2.15;0.40;;;25.90;54.20;;;;;;4918960;29;20142;-86
2023/08/22 17:54:55;;;;;;;1.52;0.38;;;25.70;54.60;;;;;;4892542;29;20047;-83
2023/08/22 17:57:22;;;;;;;2.08;0.50;;;25.50;55.10;;;;;;4893692;29;20067;-80
2023/08/22 17:59:49;;;;;;;0.55;0.22;;;25.20;55.50;;;;;;4900456;29;20060;-84
2023/08/22 18:02:16;;;;;;;0.77;0.50;;;25.00;55.60;;;;;;4889762;29;20087;-83
2023/08/22 18:04:43;;;;;;;1.45;0.20;;;24.90;56.10;;;;;;4895592;29;20047;-82
2023/08/22 18:07:10;;;;;;;0.65;0.20;;;24.70;56.30;;;;;;4902184;29;20112;-86
2023/08/22 18:09:41;;;;;;;0.95;0.30;;;24.60;56.60;;;;;;4903178;29;20048;-83
2023/08/22 18:12:08;;;;;;;1.55;0.32;;;24.50;57.00;;;;;;4920799;29;20044;-83
2023/08/22 18:14:39;;;;;;;2.10;0.20;;;24.40;57.50;;;;;;4908908;29;20049;-90
2023/08/22 18:17:06;;;;;;;1.02;0.28;;;24.20;57.70;;;;;;4908546;29;20082;-81
2023/08/22 18:19:36;;;;;;;1.73;0.55;;;24.10;58.20;;;;;;4921467;29;20134;-84
2023/08/22 18:22:03;;;;;;;0.95;0.40;;;24.10;58.50;;;;;;4905065;29;20563;-84
2023/08/22 18:24:30;;;;;;;1.35;0.13;;;23.90;58.80;;;;;;4904917;29;20048;-82
2023/08/22 18:26:58;;;;;;;1.63;0.55;;;23.80;59.10;;;;;;4873202;29;20339;-84
2023/08/22 18:29:25;;;;;;;0.52;0.22;;;23.80;59.60;;;;;;4895802;29;20059;-82
2023/08/22 18:31:52;;;;;;;1.10;0.30;;;23.70;59.90;;;;;;4905023;29;20036;-81
2023/08/22 18:34:19;;;;;;;0.80;0.20;;;23.50;60.10;;;;;;4893994;29;20052;-81
2023/08/22 18:36:47;;;;;;;0.55;0.17;;;23.40;60.20;;;;;;4904690;29;20050;-84
2023/08/22 18:39:14;;;;;;;1.52;0.30;;;23.40;60.50;;;;;;4904693;29;20054;-85
2023/08/22 18:41:41;;;;;;;0.80;0.20;;;23.30;60.80;;;;;;4909217;29;20055;-82
2023/08/22 18:44:08;;;;;;;1.35;0.40;;;23.20;61.10;;;;;;4903351;29;20069;-83
2023/08/22 18:46:38;;;;;;;1.48;0.40;;;23.10;61.40;;;;;;4908344;29;20106;-82
2023/08/22 18:49:07;;;;;;;2.85;0.40;;;23.10;61.50;;;;;;4907374;29;20044;-83
2023/08/22 18:51:34;;;;;;;1.30;0.25;;;23.00;61.80;;;;;;4901611;29;20060;-84
2023/08/22 18:54:01;;;;;;;0.93;0.17;;;23.00;62.00;;;;;;4897728;29;20389;-85
2023/08/22 18:56:31;;;;;;;0.93;0.30;;;22.90;62.20;;;;;;4902636;29;20083;-88
2023/08/22 18:59:00;;;;;;;1.38;0.30;;;22.80;62.40;;;;;;4912868;29;20568;-89
2023/08/22 19:01:41;;;;;;;1.92;0.50;;;22.80;62.70;;;;;;4906894;29;20081;-89
2023/08/22 19:04:08;;;;;;;1.42;0.20;;;22.70;63.10;;;;;;4921617;29;20047;-89